Time;durP1;ratioP1;P1;durP2;ratioP2;P2;SDS_P1;SDS_P2;PMS_P1;PMS_P2;Temp;Humidity;BMP_temperature;BMP_pressure;BME280_temperature;BME280_humidity;BME280_pressure;Samples;Min_cycle;Max_cycle;Signal;HPM_P1;HPM_P2
2023/08/11 00:03:22;;;;;;;2.15;1.30;;;;;;;21.43;48.56;101917.69;16120794;19;131960;-66
2023/08/11 00:08:44;;;;;;;1.95;1.35;;;;;;;21.41;48.72;101914.34;16122038;19;130236;-67
2023/08/11 00:14:06;;;;;;;2.65;1.17;;;;;;;21.42;48.71;101909.59;16123109;19;130636;-67
2023/08/11 00:19:29;;;;;;;1.90;1.30;;;;;;;21.41;48.51;101892.06;16118319;19;129568;-68
2023/08/11 00:24:51;;;;;;;3.03;1.20;;;;;;;21.41;48.57;101903.19;16117981;19;130282;-67
2023/08/11 00:30:13;;;;;;;2.47;1.42;;;;;;;21.40;48.81;101898.72;16117595;19;129624;-67
2023/08/11 00:35:35;;;;;;;4.65;1.30;;;;;;;21.40;48.35;101897.84;16115379;19;130044;-67
2023/08/11 00:40:57;;;;;;;3.15;1.23;;;;;;;21.39;48.53;101880.31;16118957;19;130892;-68
2023/08/11 00:46:22;;;;;;;1.90;1.20;;;;;;;21.39;48.51;101877.53;16119519;19;130640;-68
2023/08/11 00:51:45;;;;;;;3.60;1.33;;;;;;;21.38;48.25;101875.84;16114431;19;129859;-66
2023/08/11 00:57:07;;;;;;;2.60;1.27;;;;;;;21.38;48.44;101870.28;16114664;19;129912;-67
2023/08/11 01:02:29;;;;;;;4.32;1.33;;;;;;;21.39;48.68;101885.03;16112225;19;129863;-68
2023/08/11 01:08:05;;;;;;;3.60;1.23;;;;;;;21.37;48.75;101876.94;16116961;19;130284;-68
2023/08/11 01:13:29;;;;;;;1.00;0.90;;;;;;;21.35;48.41;101871.59;16119227;19;130066;-70
2023/08/11 01:18:52;;;;;;;3.92;1.20;;;;;;;21.35;48.51;101870.75;16119420;19;131143;-70
2023/08/11 01:24:15;;;;;;;1.95;1.10;;;;;;;21.35;48.69;101859.63;16115993;19;130464;-71
2023/08/11 01:29:37;;;;;;;3.25;1.52;;;;;;;21.34;48.47;101847.66;16113669;19;130560;-68
2023/08/11 01:34:59;;;;;;;1.67;1.13;;;;;;;21.33;48.21;101848.75;16119092;19;130333;-72
2023/08/11 01:40:21;;;;;;;2.70;1.30;;;;;;;21.33;48.63;101850.66;16122085;19;129590;-72
2023/08/11 01:45:44;;;;;;;2.67;0.95;;;;;;;21.33;48.48;101856.22;16118595;19;131516;-68
2023/08/11 01:51:07;;;;;;;1.60;1.20;;;;;;;21.32;48.29;101860.09;16115171;19;130709;-68
2023/08/11 01:56:29;;;;;;;1.58;1.10;;;;;;;21.32;48.39;101865.66;16116205;19;130468;-68
2023/08/11 02:01:52;;;;;;;1.52;1.05;;;;;;;21.31;48.40;101858.41;16115232;19;130247;-68
2023/08/11 02:07:14;;;;;;;2.28;1.17;;;;;;;21.31;48.50;101858.41;16121893;19;130141;-67
2023/08/11 02:12:37;;;;;;;1.27;1.00;;;;;;;21.31;48.44;101858.41;16115490;19;129899;-68
2023/08/11 02:17:58;;;;;;;1.73;1.10;;;;;;;21.30;48.66;101857.56;16114198;19;130182;-68
2023/08/11 02:23:20;;;;;;;1.80;1.27;;;;;;;21.31;48.40;101866.75;16111634;19;131005;-68
2023/08/11 02:28:42;;;;;;;2.30;1.05;;;;;;;21.29;48.23;101861.44;16116038;19;132597;-68
2023/08/11 02:34:04;;;;;;;2.08;1.10;;;;;;;21.29;48.18;101855.88;16115940;19;129935;-68
2023/08/11 02:39:26;;;;;;;2.60;0.93;;;;;;;21.29;48.18;101860.59;16116906;19;130198;-67
2023/08/11 02:44:49;;;;;;;2.63;1.08;;;;;;;21.27;48.46;101858.03;16109907;19;129672;-68
2023/08/11 02:50:13;;;;;;;1.90;1.13;;;;;;;21.28;48.65;101856.13;16127273;19;129491;-67
2023/08/11 02:55:35;;;;;;;3.15;1.10;;;;;;;21.27;48.19;101865.56;16120455;19;131917;-67
2023/08/11 03:00:57;;;;;;;1.85;1.13;;;;;;;21.27;48.38;101860.00;16124295;19;130794;-67
2023/08/11 03:06:20;;;;;;;2.00;1.10;;;;;;;21.26;48.66;101866.66;16124426;19;129821;-67
2023/08/11 03:11:42;;;;;;;1.23;0.85;;;;;;;21.27;48.69;101857.22;16128202;19;130015;-67
2023/08/11 03:17:05;;;;;;;1.65;1.10;;;;;;;21.25;48.63;101848.25;16125581;19;129399;-67
2023/08/11 03:22:27;;;;;;;3.15;1.35;;;;;;;21.25;48.46;101848.25;16124374;19;130584;-67
2023/08/11 03:27:50;;;;;;;2.10;1.30;;;;;;;21.24;48.48;101838.19;16122061;19;130045;-67
2023/08/11 03:33:12;;;;;;;2.72;1.30;;;;;;;21.24;48.41;101846.56;16126253;19;129828;-67
2023/08/11 03:38:37;;;;;;;1.58;1.10;;;;;;;21.22;48.19;101844.84;16121805;19;130090;-69
2023/08/11 03:43:59;;;;;;;1.83;1.00;;;;;;;21.22;48.25;101849.59;16125008;19;131443;-67
2023/08/11 03:49:22;;;;;;;1.83;1.30;;;;;;;21.21;48.42;101857.06;16119897;19;130235;-67
2023/08/11 03:54:44;;;;;;;1.38;0.90;;;;;;;21.22;48.42;101871.84;16119058;19;130791;-67
2023/08/11 04:00:11;;;;;;;1.80;0.90;;;;;;;21.22;48.43;101861.56;16124792;19;129667;-67
2023/08/11 04:05:33;;;;;;;1.75;0.90;;;;;;;21.21;48.74;101843.16;16123628;19;131909;-67
2023/08/11 04:10:55;;;;;;;1.40;1.02;;;;;;;21.20;48.21;101841.47;16124035;19;130882;-67
2023/08/11 04:16:17;;;;;;;2.03;0.77;;;;;;;21.20;48.58;101838.69;16120393;19;130926;-67
2023/08/11 04:21:40;;;;;;;1.10;1.00;;;;;;;21.20;48.67;101835.91;16121332;19;130114;-67
2023/08/11 04:27:02;;;;;;;1.15;0.82;;;;;;;21.19;48.43;101828.63;16120219;19;130415;-68
2023/08/11 04:32:25;;;;;;;2.13;1.02;;;;;;;21.19;48.70;101830.59;16118631;19;130542;-67
2023/08/11 04:37:46;;;;;;;1.85;1.17;;;;;;;21.18;48.71;101824.16;16119125;19;130453;-67
2023/08/11 04:43:08;;;;;;;1.42;0.77;;;;;;;21.18;48.27;101820.53;16113119;19;129548;-67
2023/08/11 04:48:30;;;;;;;2.65;1.00;;;;;;;21.17;48.40;101819.69;16115675;19;129540;-66
2023/08/11 04:53:54;;;;;;;1.67;0.90;;;;;;;21.18;48.46;101823.31;16110819;19;131339;-67
2023/08/11 04:59:18;;;;;;;2.22;1.30;;;;;;;21.18;48.42;101814.97;16111285;19;129878;-70
2023/08/11 05:04:40;;;;;;;2.25;1.23;;;;;;;21.16;48.51;101809.66;16111810;19;130147;-67
2023/08/11 05:10:02;;;;;;;1.52;0.95;;;;;;;21.17;48.35;101814.13;16110888;19;130430;-68
2023/08/11 05:15:24;;;;;;;1.95;1.00;;;;;;;21.15;48.34;101816.31;16112620;19;130764;-67
2023/08/11 05:20:46;;;;;;;1.95;0.98;;;;;;;21.18;48.80;101821.38;16122111;19;129570;-59
2023/08/11 05:26:08;;;;;;;2.40;1.00;;;;;;;21.23;48.54;101812.31;16121062;19;131700;-63
2023/08/11 05:31:30;;;;;;;3.10;1.15;;;;;;;21.27;48.64;101812.69;16118281;19;130133;-65
2023/08/11 05:36:53;;;;;;;2.65;1.05;;;;;;;21.31;48.86;101813.88;16121001;19;129755;-65
2023/08/11 05:42:15;;;;;;;2.88;1.05;;;;;;;21.36;48.74;101811.22;16116841;19;129758;-65
2023/08/11 05:47:37;;;;;;;4.20;1.00;;;;;;;21.38;48.59;101814.59;16113988;19;130033;-63
2023/08/11 05:52:59;;;;;;;1.98;1.20;;;;;;;21.39;48.46;101821.88;16115819;19;129364;-63
2023/08/11 05:58:21;;;;;;;3.25;1.00;;;;;;;21.35;48.51;101827.06;16112677;19;129447;-63
2023/08/11 06:03:43;;;;;;;1.67;0.80;;;;;;;21.37;48.31;101829.59;16114399;19;131968;-62
2023/08/11 06:09:05;;;;;;;3.97;1.30;;;;;;;21.36;48.62;101830.69;16118177;19;130235;-63
2023/08/11 06:14:28;;;;;;;2.53;1.10;;;;;;;21.36;48.87;101827.91;16113436;19;130932;-61
2023/08/11 06:19:50;;;;;;;5.10;1.00;;;;;;;21.38;48.53;101831.31;16111051;19;129858;-60
2023/08/11 06:25:15;;;;;;;1.63;0.90;;;;;;;21.38;48.67;101834.09;16113981;19;133184;-61
2023/08/11 06:30:37;;;;;;;;;;;;;;;21.36;48.48;101833.47;16112770;19;129388;-64
2023/08/11 06:35:59;;;;;;;5.97;1.20;;;;;;;21.37;48.64;101832.41;16112323;19;129114;-64
2023/08/11 06:41:22;;;;;;;4.38;1.20;;;;;;;21.37;48.45;101841.56;16112107;19;129473;-64
2023/08/11 06:46:45;;;;;;;1.55;1.00;;;;;;;21.37;48.54;101849.09;16115076;19;130332;-65
2023/08/11 06:52:07;;;;;;;4.15;1.20;;;;;;;21.37;48.64;101841.56;16109553;19;131895;-65
2023/08/11 06:57:29;;;;;;;1.50;1.10;;;;;;;21.38;48.53;101848.00;16107415;19;130507;-66
2023/08/11 07:02:51;;;;;;;4.32;1.20;;;;;;;21.39;48.32;101854.41;16110142;19;129528;-65
2023/08/11 07:08:13;;;;;;;5.05;1.20;;;;;;;21.40;48.30;101853.31;16113634;19;129949;-64
2023/08/11 07:13:35;;;;;;;3.80;1.30;;;;;;;21.40;48.63;101862.53;16111662;19;129636;-64
2023/08/11 07:18:58;;;;;;;5.03;1.17;;;;;;;21.40;48.45;101859.75;16108721;19;131089;-65
2023/08/11 07:24:20;;;;;;;6.95;1.40;;;;;;;21.41;48.28;101855.88;16105590;19;131380;-64
2023/08/11 07:29:42;;;;;;;6.03;1.17;;;;;;;21.42;48.56;101853.94;16090887;19;131341;-64
2023/08/11 07:35:05;;;;;;;2.35;1.20;;;;;;;21.43;48.54;101859.25;16116475;19;129640;-65
2023/08/11 07:40:27;;;;;;;4.05;1.10;;;;;;;21.51;48.23;101846.94;16120299;19;129676;-63
2023/08/11 07:45:49;;;;;;;5.93;1.60;;;;;;;21.67;48.05;101851.75;16122199;19;130147;-64
2023/08/11 07:51:11;;;;;;;4.70;1.58;;;;;;;21.78;48.05;101852.84;16127421;19;129545;-68
2023/08/11 07:56:33;;;;;;;3.08;1.83;;;;;;;21.87;48.12;101856.06;16130165;19;129618;-68
2023/08/11 08:01:54;;;;;;;4.15;1.75;;;;;;;21.95;48.05;101864.06;16128486;19;129427;-68
2023/08/11 08:07:16;;;;;;;6.03;1.60;;;;;;;22.00;47.93;101860.53;16124508;19;130949;-70
2023/08/11 08:12:39;;;;;;;6.90;1.60;;;;;;;22.04;47.99;101856.13;16119584;19;130934;-68
2023/08/11 08:18:01;;;;;;;6.82;1.60;;;;;;;22.07;48.09;101864.00;16118841;19;130880;-69
2023/08/11 08:23:23;;;;;;;2.85;1.45;;;;;;;22.10;48.02;101849.59;16118429;19;130513;-67
2023/08/11 08:28:45;;;;;;;8.48;2.15;;;;;;;22.12;47.82;101841.84;16109810;19;131594;-68
2023/08/11 08:34:08;;;;;;;3.95;1.70;;;;;;;22.18;47.70;101850.28;16123143;19;129035;-68
2023/08/11 08:39:30;;;;;;;9.93;1.60;;;;;;;22.25;48.33;101856.59;16121511;19;132136;-69
2023/08/11 08:44:53;;;;;;;12.15;1.80;;;;;;;22.27;47.76;101854.41;16119311;19;131667;-68
2023/08/11 08:50:15;;;;;;;5.60;2.10;;;;;;;22.27;48.00;101854.41;16124441;19;129441;-69
2023/08/11 08:55:37;;;;;;;7.70;1.80;;;;;;;22.26;48.32;101847.97;16122402;19;129462;-69
2023/08/11 09:01:01;;;;;;;5.85;1.90;;;;;;;22.25;48.35;101834.31;16122856;19;129519;-68
2023/08/11 09:06:25;;;;;;;4.28;1.70;;;;;;;22.26;48.20;101836.81;16143465;19;129525;-68
2023/08/11 09:11:48;;;;;;;4.50;1.75;;;;;;;22.27;48.06;101840.47;16200789;19;129489;-69
2023/08/11 09:17:11;;;;;;;5.35;1.67;;;;;;;22.26;48.29;101844.34;16201495;19;130000;-69
2023/08/11 09:22:38;;;;;;;2.28;1.60;;;;;;;22.27;48.22;101843.25;16198933;19;130103;-68
2023/08/11 09:28:00;;;;;;;3.35;1.80;;;;;;;22.27;48.11;101846.06;16199428;19;130218;-68
2023/08/11 09:33:22;;;;;;;5.63;1.92;;;;;;;22.26;48.08;101841.56;16200105;19;128911;-68
2023/08/11 09:38:45;;;;;;;3.40;2.03;;;;;;;22.26;48.23;101842.41;16201707;19;128835;-68
2023/08/11 09:44:08;;;;;;;3.40;1.60;;;;;;;22.26;47.97;101842.41;16198253;19;128376;-67
2023/08/11 09:49:30;;;;;;;4.47;1.70;;;;;;;22.25;48.14;101845.44;16199735;19;128517;-68
2023/08/11 09:54:55;;;;;;;3.08;1.55;;;;;;;22.25;48.44;101839.88;16199849;19;129586;-67
2023/08/11 10:00:19;;;;;;;;;;;;;;;22.20;48.29;101840.59;16200759;19;128869;-68
2023/08/11 10:05:44;;;;;;;2.78;1.85;;;;;;;22.22;48.53;101843.97;16142295;19;130586;-68
2023/08/11 10:11:07;;;;;;;3.08;1.77;;;;;;;22.19;48.43;101844.47;16119279;19;130382;-68
2023/08/11 10:16:36;;;;;;;5.32;1.85;;;;;;;22.17;48.86;101841.09;16116727;19;129945;-68
2023/08/11 10:21:58;;;;;;;2.90;2.00;;;;;;;22.17;48.87;101834.66;16116776;19;129829;-67
2023/08/11 10:27:27;;;;;;;4.70;1.98;;;;;;;22.19;49.04;101835.25;16110850;19;129684;-68
2023/08/11 10:33:06;;;;;;;3.03;1.98;;;;;;;22.22;49.07;101823.63;16112988;19;129478;-68
2023/08/11 10:38:32;;;;;;;3.17;1.80;;;;;;;22.19;49.24;101836.13;16113436;19;129961;-68
2023/08/11 10:43:56;;;;;;;5.85;2.13;;;;;;;22.19;49.34;101841.69;16108050;19;130034;-68
2023/08/11 10:49:32;;;;;;;4.07;1.80;;;;;;;22.20;49.01;101826.66;16108084;19;131029;-71
2023/08/11 10:54:59;;;;;;;5.68;1.70;;;;;;;22.25;49.04;101829.56;16112522;19;130138;-63
2023/08/11 11:00:20;;;;;;;5.05;1.60;;;;;;;22.29;49.20;101832.69;16112938;19;129143;-63
2023/08/11 11:05:43;;;;;;;3.03;1.80;;;;;;;22.34;49.59;101838.38;16120741;19;129945;-64
2023/08/11 11:11:05;;;;;;;4.30;2.10;;;;;;;22.39;49.06;101838.47;16130950;19;130100;-71
2023/08/11 11:16:27;;;;;;;3.30;1.80;;;;;;;22.43;49.29;101836.03;16133986;19;131003;-66
2023/08/11 11:21:50;;;;;;;3.53;2.10;;;;;;;22.46;49.21;101832.75;16132231;19;130582;-65
2023/08/11 11:27:12;;;;;;;2.40;1.90;;;;;;;22.53;49.66;101822.28;16136654;19;129369;-66
2023/08/11 11:32:34;;;;;;;4.00;2.10;;;;;;;22.68;50.00;101826.44;16127242;19;130429;-67
2023/08/11 11:37:58;;;;;;;4.47;2.15;;;;;;;22.77;49.83;101824.06;16132840;19;129396;-66
2023/08/11 11:43:20;;;;;;;2.92;2.50;;;;;;;22.85;49.64;101832.00;16126535;19;130458;-66
2023/08/11 11:48:47;;;;;;;5.47;2.63;;;;;;;22.93;50.04;101828.81;16130941;19;129261;-64
2023/08/11 11:54:09;;;;;;;6.32;2.45;;;;;;;22.99;49.67;101822.25;16130965;19;130606;-69
2023/08/11 11:59:33;;;;;;;5.38;2.35;;;;;;;23.05;50.00;101818.41;16113530;19;130152;-63
2023/08/11 12:04:55;;;;;;;7.72;2.70;;;;;;;23.11;49.60;101824.09;16125480;19;129296;-63
2023/08/11 12:10:21;;;;;;;7.10;2.72;;;;;;;23.14;49.48;101818.00;16129855;19;129507;-64
2023/08/11 12:15:47;;;;;;;5.32;2.50;;;;;;;23.18;49.57;101813.59;16130199;19;130603;-65
2023/08/11 12:21:10;;;;;;;7.03;2.25;;;;;;;23.23;49.24;101816.47;16120826;19;130145;-64
2023/08/11 12:26:33;;;;;;;4.63;2.47;;;;;;;23.24;49.15;101807.00;16118957;19;131027;-63
2023/08/11 12:31:57;;;;;;;5.80;2.58;;;;;;;23.26;49.33;101796.41;16118264;19;130167;-63
2023/08/11 12:37:19;;;;;;;3.97;2.45;;;;;;;23.22;49.37;101791.56;16116889;19;130382;-64
2023/08/11 12:42:41;;;;;;;5.78;2.60;;;;;;;23.15;49.50;101798.19;16120276;19;130239;-64
2023/08/11 12:48:03;;;;;;;5.68;2.60;;;;;;;23.08;49.38;101797.50;16118322;19;131100;-63
2023/08/11 12:53:25;;;;;;;4.55;2.55;;;;;;;23.04;49.53;101801.94;16118793;19;130792;-63
2023/08/11 12:58:47;;;;;;;3.75;2.22;;;;;;;23.01;49.36;101799.66;16116531;19;129402;-63
2023/08/11 13:04:11;;;;;;;3.92;2.22;;;;;;;22.99;49.36;101793.47;16119245;19;129750;-63
2023/08/11 13:09:33;;;;;;;3.60;2.30;;;;;;;22.97;49.38;101788.16;16119487;19;129803;-64
2023/08/11 13:14:55;;;;;;;6.72;2.38;;;;;;;22.96;49.44;101788.41;16118510;19;129997;-63
2023/08/11 13:20:17;;;;;;;3.05;2.50;;;;;;;22.95;49.47;101787.56;16119611;19;129921;-63
2023/08/11 13:25:40;;;;;;;3.10;2.45;;;;;;;22.94;49.47;101791.47;16121059;19;129692;-65
2023/08/11 13:31:02;;;;;;;3.22;2.28;;;;;;;22.93;49.25;101781.38;16117563;19;129747;-64
2023/08/11 13:36:24;;;;;;;2.63;1.90;;;;;;;22.94;49.35;101785.03;16119208;19;129564;-64
2023/08/11 13:41:47;;;;;;;4.45;2.30;;;;;;;22.93;49.48;101783.34;16111865;19;129613;-65
2023/08/11 13:47:09;;;;;;;3.58;2.30;;;;;;;22.92;49.42;101782.50;16110302;19;130851;-65
2023/08/11 13:52:31;;;;;;;2.75;2.08;;;;;;;22.91;49.27;101785.53;16116943;19;129545;-63
2023/08/11 13:57:53;;;;;;;3.38;2.28;;;;;;;22.92;49.10;101782.50;16115566;19;130013;-64
2023/08/11 14:03:15;;;;;;;3.75;2.40;;;;;;;22.89;49.35;101771.84;16118055;19;129668;-66
2023/08/11 14:08:37;;;;;;;3.20;1.80;;;;;;;22.87;49.38;101768.44;16118973;19;129340;-64
2023/08/11 14:13:59;;;;;;;3.42;2.25;;;;;;;22.86;49.48;101773.16;16117427;19;130239;-62
2023/08/11 14:19:24;;;;;;;;;;;;;;;22.90;49.98;101762.34;16120706;19;130289;-64
2023/08/11 14:24:46;;;;;;;6.20;2.40;;;;;;;22.97;50.10;101768.63;16125215;19;129358;-63
2023/08/11 14:30:08;;;;;;;3.22;1.90;;;;;;;23.02;50.41;101765.91;16126282;19;131099;-64
2023/08/11 14:35:30;;;;;;;6.60;2.75;;;;;;;23.04;50.80;101769.28;16130921;19;129504;-64
2023/08/11 14:40:52;;;;;;;6.20;2.50;;;;;;;23.09;50.93;101764.88;16131017;19;129696;-64
2023/08/11 14:46:14;;;;;;;8.80;3.30;;;;;;;23.13;51.38;101763.28;16129626;19;130311;-63
2023/08/11 14:51:36;;;;;;;4.45;2.65;;;;;;;23.18;51.45;101767.00;16128869;19;130129;-63
2023/08/11 14:56:58;;;;;;;4.38;2.90;;;;;;;23.19;51.59;101770.63;16129177;19;129705;-64
2023/08/11 15:02:20;;;;;;;5.32;2.67;;;;;;;23.17;51.63;101750.47;16124992;19;130264;-64
2023/08/11 15:07:43;;;;;;;3.85;2.55;;;;;;;23.14;51.46;101743.47;16124387;19;130716;-64
2023/08/11 15:13:05;;;;;;;5.82;2.78;;;;;;;23.10;51.53;101745.09;16127118;19;130208;-63
2023/08/11 15:18:30;;;;;;;3.92;2.67;;;;;;;23.05;51.55;101745.84;16126601;19;130198;-63
2023/08/11 15:23:52;;;;;;;15.27;3.33;;;;;;;23.02;51.60;101737.16;16115743;19;130522;-63
2023/08/11 15:29:14;;;;;;;8.93;3.67;;;;;;;23.04;53.07;101741.38;16122819;19;130339;-63
2023/08/11 15:34:38;;;;;;;10.75;4.53;;;;;;;23.11;53.00;101734.78;16108839;19;129440;-63
2023/08/11 15:40:03;;;;;;;15.23;4.10;;;;;;;23.12;52.93;101730.88;16106672;19;130244;-66
2023/08/11 15:45:25;;;;;;;9.75;4.25;;;;;;;23.09;52.95;101725.81;16103507;19;131337;-64
2023/08/11 15:50:47;;;;;;;10.57;3.95;;;;;;;23.07;53.17;101722.44;16107540;19;129772;-63
2023/08/11 15:56:09;;;;;;;10.20;4.50;;;;;;;23.04;52.88;101721.00;16119320;19;129582;-64
2023/08/11 16:01:31;;;;;;;13.52;5.03;;;;;;;23.01;52.94;101725.16;16126914;19;130014;-64
2023/08/11 16:06:54;;;;;;;12.90;4.47;;;;;;;22.99;52.88;101726.50;16125452;19;130249;-64
2023/08/11 16:12:16;;;;;;;10.60;3.53;;;;;;;22.96;52.77;101722.28;16124075;19;130002;-65
2023/08/11 16:17:38;;;;;;;7.70;3.90;;;;;;;22.94;52.82;101727.28;16120548;19;131005;-64
2023/08/11 16:23:00;;;;;;;7.88;4.38;;;;;;;22.94;52.52;101734.81;16128396;19;130132;-65
2023/08/11 16:28:22;;;;;;;6.50;3.50;;;;;;;22.91;52.99;101744.53;16121439;19;129599;-64
2023/08/11 16:33:44;;;;;;;7.53;3.30;;;;;;;22.90;52.96;101745.63;16125033;19;131855;-65
2023/08/11 16:39:06;;;;;;;6.35;3.47;;;;;;;22.89;52.54;101746.72;16122538;19;130293;-63
2023/08/11 16:44:28;;;;;;;7.25;3.15;;;;;;;22.87;52.69;101741.38;16120642;19;129721;-64
2023/08/11 16:49:50;;;;;;;5.57;3.25;;;;;;;22.86;52.61;101741.63;16118638;19;129684;-63
2023/08/11 16:55:12;;;;;;;10.43;3.75;;;;;;;22.84;52.39;101746.63;16121475;19;130351;-64
2023/08/11 17:00:35;;;;;;;7.45;3.83;;;;;;;22.83;52.35;101750.50;16124790;19;129788;-63
2023/08/11 17:05:57;;;;;;;6.75;3.47;;;;;;;22.81;52.80;101761.94;16120820;19;129828;-63
2023/08/11 17:11:22;;;;;;;6.83;3.63;;;;;;;22.80;52.42;101773.34;16124911;19;129556;-63
2023/08/11 17:16:44;;;;;;;5.18;3.80;;;;;;;22.80;52.63;101771.41;16122668;19;129596;-63
2023/08/11 17:22:06;;;;;;;8.52;3.97;;;;;;;22.79;52.96;101769.72;16121958;19;129315;-63
2023/08/11 17:27:29;;;;;;;11.88;3.95;;;;;;;22.79;52.67;101761.34;16121349;19;131455;-63
2023/08/11 17:32:51;;;;;;;7.38;3.58;;;;;;;22.79;52.52;101775.28;16119506;19;130694;-63
2023/08/11 17:38:13;;;;;;;11.68;3.53;;;;;;;22.78;52.75;101776.38;16114313;19;130855;-64
2023/08/11 17:43:35;;;;;;;12.30;3.22;;;;;;;22.77;52.42;101771.91;16116322;19;129589;-63
2023/08/11 17:48:57;;;;;;;7.28;3.45;;;;;;;22.74;52.41;101764.91;16116212;19;129336;-65
2023/08/11 17:54:19;;;;;;;10.75;3.35;;;;;;;22.72;52.70;101761.53;16118522;19;130454;-63
2023/08/11 17:59:41;;;;;;;14.52;3.80;;;;;;;22.72;52.72;101758.72;16121545;19;131206;-70
2023/08/11 18:05:04;;;;;;;9.30;3.70;;;;;;;22.71;52.81;101759.81;16118227;19;128981;-64
2023/08/11 18:10:26;;;;;;;8.55;3.50;;;;;;;22.71;52.82;101770.97;16117096;19;129821;-64
2023/08/11 18:15:48;;;;;;;10.38;3.78;;;;;;;22.70;52.69;101785.19;16118036;19;129607;-64
2023/08/11 18:21:10;;;;;;;9.20;3.60;;;;;;;22.69;52.70;101767.59;16113722;19;130333;-65
2023/08/11 18:26:41;;;;;;;6.88;3.55;;;;;;;22.68;52.69;101779.84;16118910;19;130664;-64
2023/08/11 18:32:04;;;;;;;10.55;3.10;;;;;;;22.67;52.53;101780.94;16097044;19;130327;-65
2023/08/11 18:37:26;;;;;;;8.45;3.50;;;;;;;22.67;52.95;101780.13;16098022;19;131854;-54
2023/08/11 18:42:48;;;;;;;8.43;3.22;;;;;;;22.65;53.11;101771.97;16112030;19;130678;-65
2023/08/11 18:48:13;;;;;;;15.35;3.33;;;;;;;22.68;52.71;101765.06;16114401;19;130093;-64
2023/08/11 18:53:34;;;;;;;13.38;3.50;;;;;;;22.69;52.84;101773.16;16109364;19;130980;-65
2023/08/11 18:58:57;;;;;;;10.75;3.42;;;;;;;22.72;52.77;101777.38;16108156;19;130724;-66
2023/08/11 19:04:19;;;;;;;12.57;3.60;;;;;;;22.75;52.63;101765.72;16114263;19;129628;-65
2023/08/11 19:09:41;;;;;;;13.57;3.65;;;;;;;22.77;52.60;101774.69;16110301;19;130930;-63
2023/08/11 19:15:03;;;;;;;17.50;3.42;;;;;;;22.78;52.77;101758.78;16104971;19;131733;-66
2023/08/11 19:20:25;;;;;;;11.85;2.88;;;;;;;22.80;52.67;101778.91;16109253;19;129076;-65
2023/08/11 19:25:49;;;;;;;23.25;3.38;;;;;;;22.80;52.77;101778.91;16105495;19;131666;-65
2023/08/11 19:31:11;;;;;;;17.80;3.80;;;;;;;22.81;52.53;101786.19;16116283;19;130306;-64
2023/08/11 19:36:35;;;;;;;12.48;3.47;;;;;;;22.81;52.83;101780.59;16120367;19;131671;-62
2023/08/11 19:41:59;;;;;;;14.93;3.60;;;;;;;22.82;52.96;101779.50;16120958;19;130346;-67
2023/08/11 19:47:22;;;;;;;18.20;3.80;;;;;;;22.84;53.02;101777.31;16124306;19;131268;-64
2023/08/11 19:52:44;;;;;;;8.70;3.22;;;;;;;22.85;53.31;101768.69;16127604;19;133959;-68
2023/08/11 19:58:06;;;;;;;16.88;3.45;;;;;;;22.88;53.51;101775.72;16125166;19;130987;-68
2023/08/11 20:03:29;;;;;;;16.08;3.58;;;;;;;22.89;53.32;101777.41;16123409;19;131090;-63
2023/08/11 20:08:51;;;;;;;11.85;4.00;;;;;;;22.88;53.39;101776.53;16124544;19;130449;-64
2023/08/11 20:14:13;;;;;;;14.60;3.88;;;;;;;22.89;53.23;101778.25;16125792;19;129545;-67
2023/08/11 20:19:34;;;;;;;16.20;3.58;;;;;;;22.92;53.30;101770.50;16126161;19;129533;-69
2023/08/11 20:24:56;;;;;;;15.70;3.47;;;;;;;22.94;53.62;101776.66;16130321;19;129999;-68
2023/08/11 20:30:18;;;;;;;15.93;3.92;;;;;;;22.95;53.57;101786.72;16141952;19;131153;-67
2023/08/11 20:35:44;;;;;;;19.80;4.00;;;;;;;22.96;53.77;101789.25;16123954;19;129557;-72
2023/08/11 20:41:06;;;;;;;21.38;4.10;;;;;;;22.98;53.33;101791.78;16116226;19;130907;-71
2023/08/11 20:46:28;;;;;;;12.40;3.97;;;;;;;22.95;53.71;101778.38;16114900;19;131149;-70
2023/08/11 20:51:53;;;;;;;13.27;4.22;;;;;;;22.94;53.73;101777.50;16121117;19;129392;-74
2023/08/11 20:57:15;;;;;;;23.90;4.85;;;;;;;22.91;53.62;101779.97;16119328;19;129869;-71
2023/08/11 21:02:37;;;;;;;26.48;5.00;;;;;;;22.89;53.74;101769.03;16116373;19;130551;-70
2023/08/11 21:07:59;;;;;;;19.00;4.15;;;;;;;22.86;53.18;101777.91;16119022;19;131663;-72
2023/08/11 21:13:21;;;;;;;14.07;4.43;;;;;;;22.83;53.82;101772.84;16121855;19;130910;-71
2023/08/11 21:18:43;;;;;;;15.45;4.40;;;;;;;22.81;53.55;101767.53;16119278;19;129844;-71
2023/08/11 21:24:05;;;;;;;11.45;4.07;;;;;;;22.79;53.70;101769.72;16123665;19;130294;-69
2023/08/11 21:29:27;;;;;;;14.73;4.38;;;;;;;22.77;53.66;101769.13;16118455;19;131547;-71
2023/08/11 21:34:50;;;;;;;16.17;4.82;;;;;;;22.75;53.40;101771.31;16122591;19;132266;-68
2023/08/11 21:40:12;;;;;;;11.70;4.32;;;;;;;22.74;53.13;101769.63;16120794;19;131738;-73
2023/08/11 21:45:34;;;;;;;10.10;3.55;;;;;;;22.73;53.39;101771.56;16118874;19;130563;-68
2023/08/11 21:50:55;;;;;;;10.13;4.25;;;;;;;22.73;53.12;101774.38;16110730;19;130905;-74
2023/08/11 21:56:17;;;;;;;11.55;4.15;;;;;;;22.72;53.21;101767.09;16118572;19;130986;-71
2023/08/11 22:01:39;;;;;;;10.07;3.40;;;;;;;22.71;53.44;101765.41;16119438;19;130855;-69
2023/08/11 22:07:01;;;;;;;7.47;3.30;;;;;;;22.70;53.13;101771.25;16114835;19;130127;-72
2023/08/11 22:12:23;;;;;;;13.05;3.90;;;;;;;22.68;52.96;101774.28;16112519;19;130023;-72
2023/08/11 22:17:45;;;;;;;10.82;4.00;;;;;;;22.68;53.30;101770.66;16109084;19;130748;-71
2023/08/11 22:23:07;;;;;;;9.63;3.90;;;;;;;22.68;53.03;101759.50;16116795;19;129559;-71
2023/08/11 22:28:29;;;;;;;10.63;3.90;;;;;;;22.68;52.80;101760.31;16112813;19;133770;-70
2023/08/11 22:33:51;;;;;;;8.68;3.90;;;;;;;22.66;52.77;101754.16;16112239;19;130506;-71
2023/08/11 22:39:13;;;;;;;9.25;3.15;;;;;;;22.65;52.87;101744.09;16111011;19;131521;-67
2023/08/11 22:44:35;;;;;;;7.13;3.47;;;;;;;22.65;52.94;101746.88;16110763;19;130222;-67
2023/08/11 22:49:57;;;;;;;10.05;3.90;;;;;;;22.64;52.45;101739.63;16113809;19;131228;-66
2023/08/11 22:55:19;;;;;;;6.97;3.67;;;;;;;22.63;52.94;101715.63;16112716;19;130233;-69
2023/08/11 23:00:41;;;;;;;8.30;3.20;;;;;;;22.63;52.80;101717.56;16113124;19;130526;-63
2023/08/11 23:06:03;;;;;;;8.13;3.03;;;;;;;22.66;52.74;101712.31;16126886;19;130341;-70
2023/08/11 23:11:25;;;;;;;10.25;3.20;;;;;;;22.70;53.00;101704.31;16150574;19;130266;-61
2023/08/11 23:16:47;;;;;;;10.18;3.45;;;;;;;22.73;52.58;101696.25;16204978;19;129566;-66
2023/08/11 23:22:10;;;;;;;7.20;3.13;;;;;;;22.76;52.79;101706.06;16206481;19;132916;-72
2023/08/11 23:27:33;;;;;;;7.57;3.10;;;;;;;22.79;52.40;101701.91;16203306;19;129959;-72
2023/08/11 23:32:55;;;;;;;6.38;3.30;;;;;;;22.82;52.55;101709.75;16204344;19;130432;-70
2023/08/11 23:38:17;;;;;;;8.88;3.35;;;;;;;22.85;52.94;101720.41;16196675;19;129752;-66
2023/08/11 23:43:39;;;;;;;9.52;3.10;;;;;;;22.85;52.56;101710.09;16204050;19;129769;-71
2023/08/11 23:49:01;;;;;;;8.35;3.17;;;;;;;22.83;52.42;101695.56;16199007;19;129517;-71
2023/08/11 23:54:23;;;;;;;5.47;3.22;;;;;;;22.80;52.34;101696.09;16202659;19;129367;-71
2023/08/11 23:59:45;;;;;;;5.90;2.67;;;;;;;22.79;52.25;101696.31;16208263;19;128390;-71
